Latest Coastal Weather Observations for Broome Port

IDW60701

Issued at 12:12 am WST Wednesday 27 May 2015 (issued every 10 minutes, with the page automatically refreshed every 10 minutes)

About coastal observations | Map of coastal stations | Coastal observations for WA | Marine services | Other Formats
Station Details ID: 003102 Name: BROOME NTC AWS Lat: -18.00 Lon: 122.22 Height: 0.0 m
Data from the previous 72 hours. | See also: Recent months for locations in Western Australia
Date/Time
WST
Temp

°C
Wind Pressure Rain
since 9am
mm
Weather Cloud Vis
km
Sea
Height
m
Swell
Dir
 
Speed
knots
Gust
knots
hPa Trend Height
m
Period
s
Dir
26/05:00am 23.3 ESE 11 14 1015.0 - - - - - - - - -
26/04:30am 23.1 ESE 10 12 1015.0 - - - - - - - - -
26/04:00am 23.2 E 10 12 1014.8 - - - - - - - - -
26/03:30am 23.4 E 12 13 1014.6 - - - - - - - - -
26/03:00am 23.8 E 12 14 1014.7 - - - - - - - - -
26/02:30am 23.9 ESE 11 13 1014.7 - - - - - - - - -
26/02:00am 24.3 E 12 14 1014.8 - - - - - - - - -
26/01:30am 24.3 E 10 13 1015.1 - - - - - - - - -
26/01:00am 24.4 E 9 10 1015.5 - - - - - - - - -
26/12:30am 24.7 E 8 9 1015.8 - - - - - - - - -
26/12:00am 24.2 ESE 7 8 1015.8 - - - - - - - - -
 
Date/Time
WST
Temp

°C
Wind Pressure Rain
since 9am
mm
Weather Cloud Vis
km
Sea
Height
m
Swell
Dir
 
Speed
knots
Gust
knots
hPa Trend Height
m
Period
s
Dir
25/11:30pm 24.6 SE 9 10 1016.0 - - - - - - - - -
25/11:00pm 25.1 SE 8 9 1016.3 - - - - - - - - -
25/10:30pm 25.8 SSE 10 13 1016.3 - - - - - - - - -
25/10:00pm 26.0 S 8 10 1016.4 - - - - - - - - -
25/09:30pm 26.2 SSW 9 10 1016.4 - - - - - - - - -
25/09:00pm 26.5 SSW 9 11 1016.2 - - - - - - - - -
25/08:30pm 26.1 SSW 11 12 1016.4 - - - - - - - - -
25/08:00pm 26.6 SSW 11 12 1016.1 - - - - - - - - -
25/07:30pm 26.4 S 11 12 1015.8 - - - - - - - - -
25/07:00pm 26.7 SSW 14 16 1015.3 - - - - - - - - -
25/06:30pm 25.8 SSW 10 11 1014.6 - - - - - - - - -
25/06:00pm 25.9 SSW 9 10 1014.3 - - - - - - - - -
25/05:30pm 25.6 SSW 7 8 1014.1 - - - - - - - - -
25/05:00pm 26.2 WNW 5 6 1013.8 - - - - - - - - -
25/04:30pm 26.3 WNW 4 5 1013.5 - - - - - - - - -
25/04:00pm 26.3 WSW 4 5 1013.5 - - - - - - - - -
25/03:30pm 26.6 W 6 7 1013.2 - - - - - - - - -
25/03:00pm 26.6 W 4 5 1012.8 - - - - - - - - -
25/02:30pm 26.7 WSW 7 8 1013.3 - - - - - - - - -
25/02:00pm 26.8 W 7 9 1013.3 - - - - - - - - -
25/01:30pm 26.6 W 6 7 1013.3 - - - - - - - - -
25/01:00pm 25.6 WSW 7 9 1013.6 - - - - - - - - -
25/12:30pm 24.9 S 7 9 1013.7 - - - - - - - - -
25/12:00pm 26.8 SE 11 12 1014.3 - - - - - - - - -
25/11:30am 26.3 SE 12 13 1014.7 - - - - - - - - -
25/11:00am 25.6 ESE 10 11 1015.2 - - - - - - - - -
25/10:30am 24.8 ESE 12 13 1015.4 - - - - - - - - -
25/10:00am 24.3 ESE 11 13 1015.9 - - - - - - - - -
25/09:30am 23.9 ESE 11 12 1016.2 - - - - - - - - -
25/09:00am 23.7 ESE 9 10 1016.4 - - - - - - - - -
25/08:30am 23.7 ESE 9 11 1016.2 - - - - - - - - -
25/08:00am 24.0 E 9 11 1016.2 - - - - - - - - -
25/07:30am 24.1 E 9 11 1015.6 - - - - - - - - -
25/07:00am 23.9 ENE 9 11 1015.4 - - - - - - - - -
25/06:30am 23.9 ESE 9 10 1015.2 - - - - - - - - -
25/06:00am 24.3 E 8 9 1014.7 - - - - - - - - -
25/05:30am 24.3 ESE 10 12 1013.9 - - - - - - - - -
25/05:00am 24.4 E 11 14 1013.2 - - - - - - - - -
25/04:30am 24.0 E 9 11 1013.6 - - - - - - - - -
25/04:00am 24.6 ESE 10 12 1013.5 - - - - - - - - -
25/03:30am 24.5 ESE 8 10 1013.4 - - - - - - - - -
25/03:00am 24.6 E 10 12 1013.0 - - - - - - - - -
25/02:30am 24.7 ESE 10 11 1013.0 - - - - - - - - -
25/02:00am 24.5 ESE 5 7 1013.5 - - - - - - - - -
25/01:30am 24.6 ESE 4 5 1013.8 - - - - - - - - -
25/01:00am 25.2 SE 5 6 1013.9 - - - - - - - - -
25/12:30am 25.9 SE 6 8 1013.9 - - - - - - - - -
25/12:00am 25.8 SE 5 6 1013.9 - - - - - - - - -
 
Date/Time
WST
Temp

°C
Wind Pressure Rain
since 9am
mm
Weather Cloud Vis
km
Sea
Height
m
Swell
Dir
 
Speed
knots
Gust
knots
hPa Trend Height
m
Period
s
Dir
24/11:30pm 26.2 S 3 4 1014.0 - - - - - - - - -
24/11:00pm 26.8 W 1 2 1014.5 - - - - - - - - -
24/10:30pm 26.5 SSW 2 3 1014.6 - - - - - - - - -
24/10:00pm 25.9 SSE 1 2 1014.6 - - - - - - - - -
24/09:30pm 25.9 NNW 2 2 1014.6 - - - - - - - - -
24/09:00pm 25.8 N 3 5 1014.7 - - - - - - - - -
24/08:30pm 26.1 NNW 3 4 1014.6 - - - - - - - - -
24/08:00pm 26.6 W 3 4 1014.6 - - - - - - - - -
24/07:30pm 25.6 WSW 2 3 1014.2 - - - - - - - - -
24/07:00pm 25.9 WSW 3 3 1014.3 - - - - - - - - -
24/06:30pm 25.5 W 6 7 1014.4 - - - - - - - - -
24/06:00pm 25.4 W 5 7 1013.8 - - - - - - - - -
24/05:30pm 25.8 W 3 4 1013.1 - - - - - - - - -
24/05:00pm 25.7 W 7 8 1013.2 - - - - - - - - -
24/04:30pm 25.7 W 8 9 1012.8 - - - - - - - - -
24/04:00pm 25.8 W 7 8 1012.4 - - - - - - - - -
24/03:30pm 25.9 W 6 8 1012.3 - - - - - - - - -
24/03:00pm 25.8 W 6 7 1012.0 - - - - - - - - -
24/02:30pm 26.4 W 5 6 1012.2 - - - - - - - - -
24/02:00pm 25.6 SW 6 6 1011.9 - - - - - - - - -
24/01:30pm 26.6 WSW 4 5 1012.5 - - - - - - - - -
24/01:00pm 26.6 SSW 5 6 1012.5 - - - - - - - - -
24/12:30pm 27.4 S 5 6 1013.1 - - - - - - - - -
24/12:00pm 26.7 S 4 5 1013.4 - - - - - - - - -
24/11:30am 26.4 SE 3 4 1013.8 - - - - - - - - -
24/11:00am 26.3 ESE 4 4 1014.2 - - - - - - - - -
24/10:30am 26.3 ESE 4 5 1014.7 - - - - - - - - -
24/10:00am 25.3 SSW 1 1 1015.3 - - - - - - - - -
24/09:30am 24.5 SE 4 4 1015.1 - - - - - - - - -
24/09:00am 24.3 ENE 3 4 1015.1 - - - - - - - - -
24/08:30am 23.2 ENE 4 5 1015.0 - - - - - - - - -
24/08:00am 22.9 E 6 7 1015.0 - - - - - - - - -
24/07:30am 23.0 E 4 5 1014.8 - - - - - - - - -
24/07:00am 23.0 E 3 4 1014.5 - - - - - - - - -
24/06:30am 23.1 NE 5 6 1014.3 - - - - - - - - -
24/06:00am 23.1 E 4 4 1013.9 - - - - - - - - -
24/05:30am 23.0 NE 3 4 1013.4 - - - - - - - - -
24/05:00am 23.1 ENE 3 4 1013.0 - - - - - - - - -
24/04:30am 23.0 E 6 6 1012.5 - - - - - - - - -
24/04:00am 23.0 ESE 6 6 1012.6 - - - - - - - - -
24/03:30am 23.1 ESE 5 6 1012.7 - - - - - - - - -
24/03:00am 23.2 E 4 4 1012.8 - - - - - - - - -
24/02:30am 23.0 E 3 5 1012.4 - - - - - - - - -
24/02:00am 23.2 ESE 3 4 1012.6 - - - - - - - - -
24/01:30am 23.2 CALM 0 1 1012.7 - - - - - - - - -
24/01:00am 23.5 S 3 3 1013.2 - - - - - - - - -
24/12:30am 23.8 WSW 2 4 1013.6 - - - - - - - - -

Other Formats:

Comma delimited format used in spreadsheet applications
http://www.bom.gov.au/fwo/IDW60701/IDW60701.95202.axf

JavaScript Object Notation format (JSON) in row-major order
http://www.bom.gov.au/fwo/IDW60701/IDW60701.95202.json